sensor_id;sensor_type;location;lat;lon;timestamp;pressure;altitude;pressure_sealevel;temperature;humidity
35910;BME280;22004;49.120;-0.200;2023-01-15T00:00:14;100445.56;;;10.16;75.85
35910;BME280;22004;49.120;-0.200;2023-01-15T00:02:39;100431.66;;;9.07;77.23
35910;BME280;22004;49.120;-0.200;2023-01-15T00:05:05;100439.22;;;9.65;76.91
35910;BME280;22004;49.120;-0.200;2023-01-15T00:07:30;100428.72;;;10.22;75.13
35910;BME280;22004;49.120;-0.200;2023-01-15T00:09:55;100417.22;;;9.84;75.56
35910;BME280;22004;49.120;-0.200;2023-01-15T00:12:21;100417.78;;;9.27;76.80
35910;BME280;22004;49.120;-0.200;2023-01-15T00:14:46;100425.66;;;9.96;74.22
35910;BME280;22004;49.120;-0.200;2023-01-15T00:17:11;100413.09;;;10.11;74.31
35910;BME280;22004;49.120;-0.200;2023-01-15T00:19:36;100421.41;;;10.16;75.00
35910;BME280;22004;49.120;-0.200;2023-01-15T00:22:02;100423.66;;;9.22;72.78
35910;BME280;22004;49.120;-0.200;2023-01-15T00:24:27;100428.91;;;9.91;75.14
35910;BME280;22004;49.120;-0.200;2023-01-15T00:27:27;100439.69;;;9.68;76.88
35910;BME280;22004;49.120;-0.200;2023-01-15T00:30:06;100442.75;;;9.42;77.02
35910;BME280;22004;49.120;-0.200;2023-01-15T00:32:31;100440.09;;;9.95;75.95
35910;BME280;22004;49.120;-0.200;2023-01-15T00:34:57;100446.91;;;9.82;74.24
35910;BME280;22004;49.120;-0.200;2023-01-15T00:37:22;100449.25;;;10.00;75.69
35910;BME280;22004;49.120;-0.200;2023-01-15T00:39:47;100456.38;;;10.23;72.39
35910;BME280;22004;49.120;-0.200;2023-01-15T00:42:12;100445.63;;;9.41;75.82
35910;BME280;22004;49.120;-0.200;2023-01-15T00:44:38;100443.94;;;9.77;74.28
35910;BME280;22004;49.120;-0.200;2023-01-15T00:47:03;100434.44;;;9.75;73.65
35910;BME280;22004;49.120;-0.200;2023-01-15T00:49:28;100448.38;;;9.32;77.18
35910;BME280;22004;49.120;-0.200;2023-01-15T00:51:53;100440.59;;;9.61;72.33
35910;BME280;22004;49.120;-0.200;2023-01-15T00:54:19;100447.09;;;9.43;73.88
35910;BME280;22004;49.120;-0.200;2023-01-15T00:56:44;100438.94;;;9.74;74.50
35910;BME280;22004;49.120;-0.200;2023-01-15T00:59:09;100443.78;;;10.23;74.16
35910;BME280;22004;49.120;-0.200;2023-01-15T01:01:35;100439.28;;;10.39;73.55
35910;BME280;22004;49.120;-0.200;2023-01-15T01:04:00;100441.66;;;9.89;74.17
35910;BME280;22004;49.120;-0.200;2023-01-15T01:06:26;100443.19;;;10.36;73.96
35910;BME280;22004;49.120;-0.200;2023-01-15T01:08:51;100437.34;;;9.50;74.09
35910;BME280;22004;49.120;-0.200;2023-01-15T01:11:17;100450.00;;;9.56;74.35
35910;BME280;22004;49.120;-0.200;2023-01-15T01:13:43;100446.59;;;10.15;73.07
35910;BME280;22004;49.120;-0.200;2023-01-15T01:16:31;100442.50;;;10.04;73.45
35910;BME280;22004;49.120;-0.200;2023-01-15T01:18:56;100449.69;;;9.89;70.89
35910;BME280;22004;49.120;-0.200;2023-01-15T01:21:22;100452.22;;;9.91;72.24
35910;BME280;22004;49.120;-0.200;2023-01-15T01:23:48;100480.34;;;10.09;72.79
35910;BME280;22004;49.120;-0.200;2023-01-15T01:26:13;100477.84;;;10.52;72.59
35910;BME280;22004;49.120;-0.200;2023-01-15T01:28:39;100479.63;;;10.30;72.11
35910;BME280;22004;49.120;-0.200;2023-01-15T01:31:04;100489.88;;;9.37;73.41
35910;BME280;22004;49.120;-0.200;2023-01-15T01:33:30;100512.56;;;9.87;73.07
35910;BME280;22004;49.120;-0.200;2023-01-15T01:35:55;100504.69;;;9.47;73.38
35910;BME280;22004;49.120;-0.200;2023-01-15T01:38:20;100496.66;;;9.47;72.52
35910;BME280;22004;49.120;-0.200;2023-01-15T01:40:45;100511.09;;;9.38;71.72
35910;BME280;22004;49.120;-0.200;2023-01-15T01:43:16;100491.72;;;9.74;71.02
35910;BME280;22004;49.120;-0.200;2023-01-15T01:45:43;100498.91;;;9.36;70.85
35910;BME280;22004;49.120;-0.200;2023-01-15T01:48:09;100480.56;;;9.70;71.63
35910;BME280;22004;49.120;-0.200;2023-01-15T01:50:34;100469.06;;;9.39;73.66
35910;BME280;22004;49.120;-0.200;2023-01-15T01:53:06;100483.25;;;9.47;69.67
35910;BME280;22004;49.120;-0.200;2023-01-15T01:55:32;100489.19;;;9.95;71.70
35910;BME280;22004;49.120;-0.200;2023-01-15T01:58:00;100478.47;;;9.35;72.13
35910;BME280;22004;49.120;-0.200;2023-01-15T02:00:26;100492.00;;;10.17;70.79
35910;BME280;22004;49.120;-0.200;2023-01-15T02:02:52;100506.31;;;10.09;70.71
35910;BME280;22004;49.120;-0.200;2023-01-15T02:05:26;100488.56;;;10.08;72.36
35910;BME280;22004;49.120;-0.200;2023-01-15T02:07:52;100496.09;;;9.75;70.44
35910;BME280;22004;49.120;-0.200;2023-01-15T02:10:18;100494.25;;;8.75;75.74
35910;BME280;22004;49.120;-0.200;2023-01-15T02:12:45;100493.56;;;9.73;73.38
35910;BME280;22004;49.120;-0.200;2023-01-15T02:15:15;100488.09;;;8.67;70.58
35910;BME280;22004;49.120;-0.200;2023-01-15T02:17:47;100491.28;;;9.70;73.06
35910;BME280;22004;49.120;-0.200;2023-01-15T02:25:17;100491.16;;;9.64;71.90
35910;BME280;22004;49.120;-0.200;2023-01-15T02:27:48;100487.34;;;9.58;72.26
35910;BME280;22004;49.120;-0.200;2023-01-15T02:30:17;100496.19;;;9.21;72.73
35910;BME280;22004;49.120;-0.200;2023-01-15T02:33:03;100492.66;;;9.43;71.48
35910;BME280;22004;49.120;-0.200;2023-01-15T02:35:32;100505.44;;;8.79;72.45
35910;BME280;22004;49.120;-0.200;2023-01-15T02:38:00;100509.03;;;8.94;72.06
35910;BME280;22004;49.120;-0.200;2023-01-15T02:40:27;100514.78;;;9.83;73.03
35910;BME280;22004;49.120;-0.200;2023-01-15T02:42:53;100517.94;;;9.64;72.26
35910;BME280;22004;49.120;-0.200;2023-01-15T02:45:21;100521.97;;;9.45;69.41
35910;BME280;22004;49.120;-0.200;2023-01-15T02:47:51;100527.25;;;9.76;73.37
35910;BME280;22004;49.120;-0.200;2023-01-15T02:50:18;100526.41;;;9.52;71.78
35910;BME280;22004;49.120;-0.200;2023-01-15T02:52:46;100514.88;;;9.75;71.90
35910;BME280;22004;49.120;-0.200;2023-01-15T02:55:18;100523.09;;;9.50;70.92
35910;BME280;22004;49.120;-0.200;2023-01-15T02:57:45;100547.06;;;9.21;70.70
35910;BME280;22004;49.120;-0.200;2023-01-15T03:00:12;100543.44;;;9.59;72.35
35910;BME280;22004;49.120;-0.200;2023-01-15T03:02:40;100547.56;;;9.47;71.24
35910;BME280;22004;49.120;-0.200;2023-01-15T03:05:08;100544.88;;;9.47;72.35
35910;BME280;22004;49.120;-0.200;2023-01-15T03:10:06;100548.06;;;8.89;71.47
35910;BME280;22004;49.120;-0.200;2023-01-15T03:18:13;100535.66;;;9.50;68.39
35910;BME280;22004;49.120;-0.200;2023-01-15T03:20:42;100536.00;;;9.47;69.42
35910;BME280;22004;49.120;-0.200;2023-01-15T03:23:10;100544.03;;;9.47;73.44
35910;BME280;22004;49.120;-0.200;2023-01-15T03:25:47;100538.53;;;9.17;69.96
35910;BME280;22004;49.120;-0.200;2023-01-15T03:28:14;100547.06;;;9.21;72.75
35910;BME280;22004;49.120;-0.200;2023-01-15T03:30:42;100537.31;;;9.51;72.38
35910;BME280;22004;49.120;-0.200;2023-01-15T03:33:07;100535.72;;;9.65;70.39
35910;BME280;22004;49.120;-0.200;2023-01-15T03:38:13;100561.41;;;8.97;67.33
35910;BME280;22004;49.120;-0.200;2023-01-15T03:40:44;100578.50;;;9.27;71.08
35910;BME280;22004;49.120;-0.200;2023-01-15T03:43:12;100617.03;;;9.26;70.88
35910;BME280;22004;49.120;-0.200;2023-01-15T03:45:58;100604.91;;;8.51;72.96
35910;BME280;22004;49.120;-0.200;2023-01-15T03:48:27;100582.00;;;8.33;73.58
35910;BME280;22004;49.120;-0.200;2023-01-15T03:51:01;100573.63;;;8.27;73.48
35910;BME280;22004;49.120;-0.200;2023-01-15T03:54:13;100582.91;;;8.80;74.42
35910;BME280;22004;49.120;-0.200;2023-01-15T03:56:17;100584.03;;;9.25;72.42
35910;BME280;22004;49.120;-0.200;2023-01-15T03:58:52;100576.97;;;8.29;74.16
35910;BME280;22004;49.120;-0.200;2023-01-15T04:01:20;100571.28;;;8.24;74.07
35910;BME280;22004;49.120;-0.200;2023-01-15T04:03:47;100575.63;;;8.34;73.57
35910;BME280;22004;49.120;-0.200;2023-01-15T04:06:14;100569.97;;;8.37;73.89
35910;BME280;22004;49.120;-0.200;2023-01-15T04:08:39;100570.47;;;8.96;73.60
35910;BME280;22004;49.120;-0.200;2023-01-15T04:11:06;100578.91;;;8.68;71.97
35910;BME280;22004;49.120;-0.200;2023-01-15T04:13:31;100563.66;;;8.85;73.35
35910;BME280;22004;49.120;-0.200;2023-01-15T04:15:56;100573.63;;;8.36;71.93
35910;BME280;22004;49.120;-0.200;2023-01-15T04:18:22;100571.44;;;8.56;74.36
35910;BME280;22004;49.120;-0.200;2023-01-15T04:20:47;100580.31;;;8.56;72.21
35910;BME280;22004;49.120;-0.200;2023-01-15T04:23:13;100579.00;;;8.27;72.30
35910;BME280;22004;49.120;-0.200;2023-01-15T04:25:38;100578.66;;;7.90;74.35
35910;BME280;22004;49.120;-0.200;2023-01-15T04:28:05;100569.28;;;8.51;74.25
35910;BME280;22004;49.120;-0.200;2023-01-15T04:30:30;100568.84;;;8.78;73.61
35910;BME280;22004;49.120;-0.200;2023-01-15T04:32:55;100578.28;;;8.50;69.43
35910;BME280;22004;49.120;-0.200;2023-01-15T04:35:21;100577.28;;;8.98;72.79
35910;BME280;22004;49.120;-0.200;2023-01-15T04:37:46;100571.78;;;8.61;73.11
35910;BME280;22004;49.120;-0.200;2023-01-15T04:40:11;100587.38;;;8.88;69.67
35910;BME280;22004;49.120;-0.200;2023-01-15T04:42:57;100574.81;;;8.89;68.07
35910;BME280;22004;49.120;-0.200;2023-01-15T04:45:44;100573.03;;;9.20;72.61
35910;BME280;22004;49.120;-0.200;2023-01-15T04:48:09;100575.34;;;7.88;73.56
35910;BME280;22004;49.120;-0.200;2023-01-15T04:50:35;100578.16;;;8.27;73.02
35910;BME280;22004;49.120;-0.200;2023-01-15T04:53:00;100558.16;;;9.41;73.08
35910;BME280;22004;49.120;-0.200;2023-01-15T04:55:25;100561.56;;;9.57;72.04
35910;BME280;22004;49.120;-0.200;2023-01-15T04:57:51;100558.53;;;9.29;70.27
35910;BME280;22004;49.120;-0.200;2023-01-15T05:00:16;100565.78;;;7.61;72.09
35910;BME280;22004;49.120;-0.200;2023-01-15T05:02:41;100563.94;;;8.43;74.98
35910;BME280;22004;49.120;-0.200;2023-01-15T05:05:07;100572.44;;;9.02;73.23
35910;BME280;22004;49.120;-0.200;2023-01-15T05:07:32;100567.47;;;8.91;71.89
35910;BME280;22004;49.120;-0.200;2023-01-15T05:09:57;100565.88;;;9.04;72.13
35910;BME280;22004;49.120;-0.200;2023-01-15T05:12:22;100562.56;;;8.55;72.79
35910;BME280;22004;49.120;-0.200;2023-01-15T05:14:48;100564.44;;;8.38;71.52
35910;BME280;22004;49.120;-0.200;2023-01-15T05:17:13;100560.44;;;8.90;72.64
35910;BME280;22004;49.120;-0.200;2023-01-15T05:19:38;100577.19;;;8.84;72.80
35910;BME280;22004;49.120;-0.200;2023-01-15T05:22:03;100598.91;;;9.28;70.75
35910;BME280;22004;49.120;-0.200;2023-01-15T05:24:29;100614.84;;;8.82;69.86
35910;BME280;22004;49.120;-0.200;2023-01-15T05:26:55;100598.91;;;8.09;74.16
35910;BME280;22004;49.120;-0.200;2023-01-15T05:29:22;100584.16;;;8.29;70.88
35910;BME280;22004;49.120;-0.200;2023-01-15T05:31:47;100566.09;;;8.95;72.84
35910;BME280;22004;49.120;-0.200;2023-01-15T05:34:12;100574.13;;;8.56;72.03
35910;BME280;22004;49.120;-0.200;2023-01-15T05:36:37;100579.84;;;7.95;74.27
35910;BME280;22004;49.120;-0.200;2023-01-15T05:39:03;100570.72;;;8.70;71.63
35910;BME280;22004;49.120;-0.200;2023-01-15T05:41:28;100588.22;;;8.89;72.84
35910;BME280;22004;49.120;-0.200;2023-01-15T05:44:12;100575.69;;;7.93;73.59
35910;BME280;22004;49.120;-0.200;2023-01-15T05:46:38;100571.00;;;8.83;73.37
35910;BME280;22004;49.120;-0.200;2023-01-15T05:49:05;100563.34;;;9.11;72.63
35910;BME280;22004;49.120;-0.200;2023-01-15T05:51:31;100565.78;;;9.52;71.29
35910;BME280;22004;49.120;-0.200;2023-01-15T05:53:57;100568.34;;;9.14;72.61
35910;BME280;22004;49.120;-0.200;2023-01-15T05:56:22;100572.75;;;9.38;72.01
35910;BME280;22004;49.120;-0.200;2023-01-15T05:58:48;100576.34;;;8.83;70.06
35910;BME280;22004;49.120;-0.200;2023-01-15T06:01:13;100575.53;;;8.83;68.85
35910;BME280;22004;49.120;-0.200;2023-01-15T06:03:39;100582.84;;;8.17;73.64
35910;BME280;22004;49.120;-0.200;2023-01-15T06:06:05;100589.53;;;7.64;74.02
35910;BME280;22004;49.120;-0.200;2023-01-15T06:08:31;100581.59;;;8.68;72.46
35910;BME280;22004;49.120;-0.200;2023-01-15T06:10:56;100585.03;;;7.06;73.40
35910;BME280;22004;49.120;-0.200;2023-01-15T06:13:21;100596.72;;;8.12;75.65
35910;BME280;22004;49.120;-0.200;2023-01-15T06:15:47;100594.03;;;7.63;72.35
35910;BME280;22004;49.120;-0.200;2023-01-15T06:18:12;100591.22;;;7.97;73.93
35910;BME280;22004;49.120;-0.200;2023-01-15T06:20:37;100588.09;;;7.19;71.41
35910;BME280;22004;49.120;-0.200;2023-01-15T06:23:03;100572.47;;;7.48;69.62
35910;BME280;22004;49.120;-0.200;2023-01-15T06:25:29;100579.69;;;7.56;71.08
35910;BME280;22004;49.120;-0.200;2023-01-15T06:27:59;100580.66;;;7.63;75.43
35910;BME280;22004;49.120;-0.200;2023-01-15T06:30:24;100589.03;;;8.25;73.45
35910;BME280;22004;49.120;-0.200;2023-01-15T06:32:49;100588.53;;;7.89;72.20
35910;BME280;22004;49.120;-0.200;2023-01-15T06:35:14;100590.00;;;8.33;74.14
35910;BME280;22004;49.120;-0.200;2023-01-15T06:37:40;100589.16;;;8.57;73.02
35910;BME280;22004;49.120;-0.200;2023-01-15T06:40:05;100603.75;;;8.93;71.03
35910;BME280;22004;49.120;-0.200;2023-01-15T06:42:30;100604.41;;;7.66;70.91
35910;BME280;22004;49.120;-0.200;2023-01-15T06:45:14;100607.56;;;7.94;74.05
35910;BME280;22004;49.120;-0.200;2023-01-15T06:47:58;100616.25;;;8.53;72.20
35910;BME280;22004;49.120;-0.200;2023-01-15T06:50:24;100636.00;;;7.87;71.73
35910;BME280;22004;49.120;-0.200;2023-01-15T06:52:49;100631.28;;;8.30;70.35
35910;BME280;22004;49.120;-0.200;2023-01-15T06:55:15;100635.84;;;8.38;73.35
35910;BME280;22004;49.120;-0.200;2023-01-15T06:57:42;100643.63;;;8.80;71.71
35910;BME280;22004;49.120;-0.200;2023-01-15T07:00:07;100636.13;;;8.59;73.05
35910;BME280;22004;49.120;-0.200;2023-01-15T07:02:33;100633.44;;;7.69;70.63
35910;BME280;22004;49.120;-0.200;2023-01-15T07:04:58;100618.06;;;6.96;72.76
35910;BME280;22004;49.120;-0.200;2023-01-15T07:07:23;100630.97;;;8.00;70.05
35910;BME280;22004;49.120;-0.200;2023-01-15T07:09:49;100625.47;;;8.02;73.14
35910;BME280;22004;49.120;-0.200;2023-01-15T07:12:14;100621.97;;;8.50;73.11
35910;BME280;22004;49.120;-0.200;2023-01-15T07:14:40;100619.94;;;7.87;72.50
35910;BME280;22004;49.120;-0.200;2023-01-15T07:17:05;100630.13;;;8.33;72.84
35910;BME280;22004;49.120;-0.200;2023-01-15T07:19:30;100639.66;;;7.86;72.75
35910;BME280;22004;49.120;-0.200;2023-01-15T07:21:56;100630.16;;;8.16;72.53
35910;BME280;22004;49.120;-0.200;2023-01-15T07:24:21;100642.03;;;8.46;72.17
35910;BME280;22004;49.120;-0.200;2023-01-15T07:26:46;100637.16;;;8.17;71.90
35910;BME280;22004;49.120;-0.200;2023-01-15T07:29:11;100644.09;;;7.53;69.50
35910;BME280;22004;49.120;-0.200;2023-01-15T07:31:37;100648.22;;;8.31;71.40
35910;BME280;22004;49.120;-0.200;2023-01-15T07:34:02;100651.72;;;8.56;72.94
35910;BME280;22004;49.120;-0.200;2023-01-15T07:36:28;100663.25;;;8.48;71.63
35910;BME280;22004;49.120;-0.200;2023-01-15T07:38:53;100671.56;;;8.86;70.60
35910;BME280;22004;49.120;-0.200;2023-01-15T07:41:19;100665.94;;;7.40;73.66
35910;BME280;22004;49.120;-0.200;2023-01-15T07:44:02;100649.81;;;7.16;74.54
35910;BME280;22004;49.120;-0.200;2023-01-15T07:46:47;100649.38;;;6.86;77.16
35910;BME280;22004;49.120;-0.200;2023-01-15T07:49:30;100615.88;;;7.42;74.73
35910;BME280;22004;49.120;-0.200;2023-01-15T07:52:16;100581.81;;;7.36;75.57
35910;BME280;22004;49.120;-0.200;2023-01-15T07:54:42;100586.03;;;8.37;73.03
35910;BME280;22004;49.120;-0.200;2023-01-15T07:57:07;100595.38;;;7.67;71.64
35910;BME280;22004;49.120;-0.200;2023-01-15T07:59:33;100593.94;;;7.31;73.90
35910;BME280;22004;49.120;-0.200;2023-01-15T08:01:58;100613.44;;;7.82;75.09
35910;BME280;22004;49.120;-0.200;2023-01-15T08:04:23;100603.41;;;6.66;72.25
35910;BME280;22004;49.120;-0.200;2023-01-15T08:06:48;100614.44;;;7.14;74.23
35910;BME280;22004;49.120;-0.200;2023-01-15T08:09:14;100609.59;;;7.92;73.53
35910;BME280;22004;49.120;-0.200;2023-01-15T08:11:39;100614.38;;;6.63;74.58
35910;BME280;22004;49.120;-0.200;2023-01-15T08:14:23;100619.94;;;7.12;73.80
35910;BME280;22004;49.120;-0.200;2023-01-15T08:17:07;100627.25;;;7.02;76.47
35910;BME280;22004;49.120;-0.200;2023-01-15T08:19:32;100610.09;;;7.13;73.94
35910;BME280;22004;49.120;-0.200;2023-01-15T08:21:57;100600.19;;;7.47;75.37
35910;BME280;22004;49.120;-0.200;2023-01-15T08:24:25;100600.72;;;7.51;71.77
35910;BME280;22004;49.120;-0.200;2023-01-15T08:26:51;100595.03;;;7.62;76.67
35910;BME280;22004;49.120;-0.200;2023-01-15T08:29:16;100607.50;;;7.37;73.06
35910;BME280;22004;49.120;-0.200;2023-01-15T08:31:42;100600.47;;;7.28;73.19
35910;BME280;22004;49.120;-0.200;2023-01-15T08:34:07;100605.91;;;6.42;74.02
35910;BME280;22004;49.120;-0.200;2023-01-15T08:36:32;100602.75;;;6.72;75.63
35910;BME280;22004;49.120;-0.200;2023-01-15T08:38:57;100608.22;;;6.97;73.89
35910;BME280;22004;49.120;-0.200;2023-01-15T08:41:23;100614.28;;;7.82;74.90
35910;BME280;22004;49.120;-0.200;2023-01-15T08:43:48;100630.81;;;7.19;75.57
35910;BME280;22004;49.120;-0.200;2023-01-15T08:46:13;100639.34;;;7.31;73.85
35910;BME280;22004;49.120;-0.200;2023-01-15T08:48:38;100641.66;;;7.17;77.96
35910;BME280;22004;49.120;-0.200;2023-01-15T08:51:04;100662.94;;;7.43;75.75
35910;BME280;22004;49.120;-0.200;2023-01-15T08:53:29;100655.00;;;7.17;76.24
35910;BME280;22004;49.120;-0.200;2023-01-15T08:55:55;100642.00;;;8.14;73.57
35910;BME280;22004;49.120;-0.200;2023-01-15T08:58:20;100623.09;;;7.16;75.37
35910;BME280;22004;49.120;-0.200;2023-01-15T09:00:45;100627.72;;;7.48;75.39
35910;BME280;22004;49.120;-0.200;2023-01-15T09:03:12;100615.22;;;7.65;75.84
35910;BME280;22004;49.120;-0.200;2023-01-15T09:05:37;100612.16;;;7.35;73.53
35910;BME280;22004;49.120;-0.200;2023-01-15T09:08:03;100599.22;;;8.14;74.00
35910;BME280;22004;49.120;-0.200;2023-01-15T09:10:28;100605.94;;;8.01;71.81
35910;BME280;22004;49.120;-0.200;2023-01-15T09:12:54;100600.91;;;7.98;74.22
35910;BME280;22004;49.120;-0.200;2023-01-15T09:15:19;100614.91;;;8.58;73.55
35910;BME280;22004;49.120;-0.200;2023-01-15T09:17:44;100626.47;;;7.76;76.12
35910;BME280;22004;49.120;-0.200;2023-01-15T09:20:10;100629.16;;;8.17;73.39
35910;BME280;22004;49.120;-0.200;2023-01-15T09:22:36;100630.31;;;7.82;75.48
35910;BME280;22004;49.120;-0.200;2023-01-15T09:25:02;100632.47;;;7.95;73.10
35910;BME280;22004;49.120;-0.200;2023-01-15T09:27:27;100620.78;;;8.28;74.55
35910;BME280;22004;49.120;-0.200;2023-01-15T09:29:53;100628.13;;;7.77;72.90
35910;BME280;22004;49.120;-0.200;2023-01-15T09:32:18;100635.84;;;7.97;75.39
35910;BME280;22004;49.120;-0.200;2023-01-15T09:34:43;100628.13;;;7.77;75.16
35910;BME280;22004;49.120;-0.200;2023-01-15T09:37:08;100621.63;;;8.13;72.95
35910;BME280;22004;49.120;-0.200;2023-01-15T09:39:35;100622.19;;;7.33;76.99
35910;BME280;22004;49.120;-0.200;2023-01-15T09:42:20;100629.22;;;7.50;73.76
35910;BME280;22004;49.120;-0.200;2023-01-15T09:47:28;100634.00;;;8.06;73.78
35910;BME280;22004;49.120;-0.200;2023-01-15T09:57:19;100654.88;;;7.94;74.75
35910;BME280;22004;49.120;-0.200;2023-01-15T09:59:47;100652.00;;;7.79;74.81
35910;BME280;22004;49.120;-0.200;2023-01-15T10:04:45;100641.34;;;8.44;73.82
35910;BME280;22004;49.120;-0.200;2023-01-15T10:09:42;100670.38;;;7.90;75.61
35910;BME280;22004;49.120;-0.200;2023-01-15T10:12:16;100680.13;;;8.40;74.84
35910;BME280;22004;49.120;-0.200;2023-01-15T10:17:27;100676.97;;;8.37;74.27
35910;BME280;22004;49.120;-0.200;2023-01-15T10:19:54;100691.84;;;8.47;72.99
35910;BME280;22004;49.120;-0.200;2023-01-15T10:22:24;100696.88;;;8.42;72.96
35910;BME280;22004;49.120;-0.200;2023-01-15T10:24:55;100723.78;;;8.82;74.05
35910;BME280;22004;49.120;-0.200;2023-01-15T10:27:22;100733.44;;;8.99;73.01
35910;BME280;22004;49.120;-0.200;2023-01-15T10:29:59;100727.97;;;8.76;73.51
35910;BME280;22004;49.120;-0.200;2023-01-15T10:32:45;100718.44;;;8.57;73.02
35910;BME280;22004;49.120;-0.200;2023-01-15T10:37:40;100685.41;;;8.97;72.97
35910;BME280;22004;49.120;-0.200;2023-01-15T10:45:23;100683.06;;;7.72;73.53
35910;BME280;22004;49.120;-0.200;2023-01-15T10:47:51;100684.44;;;7.92;75.71
35910;BME280;22004;49.120;-0.200;2023-01-15T10:50:20;100680.44;;;8.78;73.92
35910;BME280;22004;49.120;-0.200;2023-01-15T10:55:33;100682.03;;;7.57;73.83
35910;BME280;22004;49.120;-0.200;2023-01-15T11:00:26;100664.53;;;7.78;73.01
35910;BME280;22004;49.120;-0.200;2023-01-15T11:02:59;100662.41;;;8.39;71.92
35910;BME280;22004;49.120;-0.200;2023-01-15T11:05:34;100654.31;;;8.80;72.56
35910;BME280;22004;49.120;-0.200;2023-01-15T11:08:00;100640.69;;;8.42;73.62
35910;BME280;22004;49.120;-0.200;2023-01-15T11:10:26;100631.56;;;8.84;72.80
35910;BME280;22004;49.120;-0.200;2023-01-15T11:12:56;100630.66;;;9.00;72.94
35910;BME280;22004;49.120;-0.200;2023-01-15T11:15:46;100632.00;;;9.04;72.14
35910;BME280;22004;49.120;-0.200;2023-01-15T11:18:35;100613.00;;;9.30;71.40
35910;BME280;22004;49.120;-0.200;2023-01-15T11:21:21;100609.22;;;9.70;70.66
35910;BME280;22004;49.120;-0.200;2023-01-15T11:23:47;100603.63;;;8.87;70.97
35910;BME280;22004;49.120;-0.200;2023-01-15T11:26:17;100615.34;;;8.86;72.83
35910;BME280;22004;49.120;-0.200;2023-01-15T11:28:44;100607.94;;;8.96;71.66
35910;BME280;22004;49.120;-0.200;2023-01-15T11:31:11;100604.03;;;8.67;72.91
35910;BME280;22004;49.120;-0.200;2023-01-15T11:33:36;100601.06;;;8.05;74.02
35910;BME280;22004;49.120;-0.200;2023-01-15T11:36:03;100598.59;;;8.92;72.50
35910;BME280;22004;49.120;-0.200;2023-01-15T11:38:42;100607.66;;;9.22;71.40
35910;BME280;22004;49.120;-0.200;2023-01-15T11:44:11;100586.56;;;8.88;72.09
35910;BME280;22004;49.120;-0.200;2023-01-15T11:46:55;100592.41;;;9.22;72.51
35910;BME280;22004;49.120;-0.200;2023-01-15T11:49:39;100589.22;;;8.96;72.09
35910;BME280;22004;49.120;-0.200;2023-01-15T11:52:52;100567.47;;;8.91;70.91
35910;BME280;22004;49.120;-0.200;2023-01-15T11:55:20;100563.22;;;9.36;70.82
35910;BME280;22004;49.120;-0.200;2023-01-15T11:57:46;100557.19;;;8.71;70.48
35910;BME280;22004;49.120;-0.200;2023-01-15T12:02:41;100559.88;;;8.55;73.56
35910;BME280;22004;49.120;-0.200;2023-01-15T12:07:40;100558.06;;;8.95;70.28
35910;BME280;22004;49.120;-0.200;2023-01-15T12:10:17;100559.97;;;9.17;66.51
35910;BME280;22004;49.120;-0.200;2023-01-15T12:12:56;100563.66;;;9.16;69.08
35910;BME280;22004;49.120;-0.200;2023-01-15T12:15:41;100552.88;;;9.24;69.29
35910;BME280;22004;49.120;-0.200;2023-01-15T12:21:02;100556.25;;;8.15;68.37
35910;BME280;22004;49.120;-0.200;2023-01-15T12:23:50;100538.34;;;8.48;70.46
35910;BME280;22004;49.120;-0.200;2023-01-15T12:26:23;100539.34;;;9.26;68.31
35910;BME280;22004;49.120;-0.200;2023-01-15T12:31:15;100518.69;;;9.03;71.55
35910;BME280;22004;49.120;-0.200;2023-01-15T12:33:47;100515.19;;;9.03;67.80
35910;BME280;22004;49.120;-0.200;2023-01-15T12:36:24;100511.19;;;8.99;68.17
35910;BME280;22004;49.120;-0.200;2023-01-15T12:38:53;100505.16;;;9.05;68.23
35910;BME280;22004;49.120;-0.200;2023-01-15T12:41:31;100498.91;;;8.82;66.75
35910;BME280;22004;49.120;-0.200;2023-01-15T12:47:21;100485.44;;;9.44;67.71
35910;BME280;22004;49.120;-0.200;2023-01-15T12:49:51;100481.53;;;9.69;66.88
35910;BME280;22004;49.120;-0.200;2023-01-15T12:52:21;100470.03;;;8.69;67.06
35910;BME280;22004;49.120;-0.200;2023-01-15T12:54:55;100469.56;;;9.42;69.45
35910;BME280;22004;49.120;-0.200;2023-01-15T12:57:43;100470.72;;;9.25;67.07
35910;BME280;22004;49.120;-0.200;2023-01-15T13:05:21;100465.69;;;9.82;68.70
35910;BME280;22004;49.120;-0.200;2023-01-15T13:08:07;100447.19;;;9.88;67.10
35910;BME280;22004;49.120;-0.200;2023-01-15T13:10:37;100458.84;;;9.80;64.95
35910;BME280;22004;49.120;-0.200;2023-01-15T13:13:16;100451.56;;;10.03;64.05
35910;BME280;22004;49.120;-0.200;2023-01-15T13:21:12;100460.63;;;9.50;66.74
35910;BME280;22004;49.120;-0.200;2023-01-15T13:23:59;100452.53;;;9.35;63.63
35910;BME280;22004;49.120;-0.200;2023-01-15T13:29:44;100440.50;;;9.08;63.82
35910;BME280;22004;49.120;-0.200;2023-01-15T13:32:21;100433.50;;;9.68;64.19
35910;BME280;22004;49.120;-0.200;2023-01-15T13:34:56;100432.13;;;9.87;63.71
35910;BME280;22004;49.120;-0.200;2023-01-15T13:37:27;100446.72;;;9.84;63.41
35910;BME280;22004;49.120;-0.200;2023-01-15T13:40:01;100425.91;;;9.71;62.81
35910;BME280;22004;49.120;-0.200;2023-01-15T13:42:29;100423.44;;;9.70;63.65
35910;BME280;22004;49.120;-0.200;2023-01-15T13:44:55;100420.81;;;9.62;66.36
35910;BME280;22004;49.120;-0.200;2023-01-15T13:47:24;100431.78;;;9.52;66.81
35910;BME280;22004;49.120;-0.200;2023-01-15T13:49:57;100427.50;;;9.43;67.99
35910;BME280;22004;49.120;-0.200;2023-01-15T13:52:32;100425.75;;;8.89;67.25
35910;BME280;22004;49.120;-0.200;2023-01-15T13:55:06;100421.81;;;9.00;68.54
35910;BME280;22004;49.120;-0.200;2023-01-15T13:57:35;100410.28;;;8.99;68.30
35910;BME280;22004;49.120;-0.200;2023-01-15T14:00:05;100416.41;;;8.54;67.14
35910;BME280;22004;49.120;-0.200;2023-01-15T14:02:34;100419.09;;;9.08;67.43
35910;BME280;22004;49.120;-0.200;2023-01-15T14:05:28;100410.16;;;8.93;66.29
35910;BME280;22004;49.120;-0.200;2023-01-15T14:07:54;100406.72;;;8.53;67.38
35910;BME280;22004;49.120;-0.200;2023-01-15T14:18:55;100384.38;;;8.69;69.37
35910;BME280;22004;49.120;-0.200;2023-01-15T14:35:11;100381.34;;;9.18;72.09
35910;BME280;22004;49.120;-0.200;2023-01-15T14:37:52;100383.69;;;9.21;70.21